Terminal Aerodrome Forecast
Issued by NWS

Home | Current Version | Previous Version | Text Only | Print | Product List | Glossary On
Versions: 1 2 3 4 5 6 7 8 9 10 11 12 13
000
FTUS45 KABQ 221100
TAFSAF
TAF
KSAF 221133Z 2212/2312 VRB05KT P6SM VCSH SCT060 BKN090
     FM221400 31007KT 6SM -SHRA SCT050 OVC090
      TEMPO 2215/2218 5SM -RA BR SCT035 OVC070
     FM222000 23008KT P6SM SCT050 BKN090
     FM230030 25008KT P6SM VCTS SCT060CB BKN090
     FM230300 35006KT P6SM SCT080=

USA.gov is the U.S. government's official web portal to all federal, state and local government web resources and services.